createdAt,value
2022-12-08T00:01:31.664Z,8.25
2022-12-08T00:04:00.754Z,8.00
2022-12-08T00:06:49.417Z,10.00
2022-12-08T00:09:23.474Z,9.75
2022-12-08T00:11:52.500Z,12.00
2022-12-08T00:14:20.681Z,8.00
2022-12-08T00:16:47.890Z,7.25
2022-12-08T00:19:15.545Z,9.00
2022-12-08T00:21:45.871Z,7.50
2022-12-08T00:24:13.366Z,9.00
2022-12-08T00:26:40.697Z,5.50
2022-12-08T00:29:11.913Z,8.50
2022-12-08T00:31:43.123Z,7.25
2022-12-08T00:34:13.021Z,8.75
2022-12-08T00:36:40.688Z,7.75
2022-12-08T00:39:08.376Z,7.50
2022-12-08T00:41:54.018Z,6.00
2022-12-08T00:44:21.655Z,8.75
2022-12-08T00:46:49.218Z,7.00
2022-12-08T00:49:19.810Z,10.50
2022-12-08T00:51:47.242Z,8.25
2022-12-08T00:54:15.100Z,10.25
2022-12-08T00:56:42.140Z,9.75
2022-12-08T00:59:10.130Z,4.25
2022-12-08T01:01:37.449Z,9.00
2022-12-08T01:04:06.890Z,9.25
2022-12-08T01:06:36.287Z,9.50
2022-12-08T01:09:06.752Z,8.00
2022-12-08T01:11:34.102Z,8.00
2022-12-08T01:14:01.654Z,6.50
2022-12-08T01:16:32.920Z,12.00
2022-12-08T01:19:01.172Z,9.50
2022-12-08T01:21:29.103Z,3.00
2022-12-08T01:23:58.201Z,11.25
2022-12-08T01:26:25.261Z,7.50
2022-12-08T01:28:52.804Z,10.25
2022-12-08T01:31:21.637Z,9.00
2022-12-08T01:33:50.277Z,7.00
2022-12-08T01:36:29.222Z,12.00
2022-12-08T01:38:59.695Z,10.50
2022-12-08T01:41:30.906Z,10.50
2022-12-08T01:44:21.421Z,6.25
2022-12-08T01:46:51.603Z,7.75
2022-12-08T01:49:25.880Z,13.75
2022-12-08T01:52:03.051Z,14.50
2022-12-08T01:54:34.908Z,12.25
2022-12-08T01:57:11.757Z,10.00
2022-12-08T01:59:45.037Z,13.50
2022-12-08T02:02:12.717Z,9.75
2022-12-08T02:04:40.153Z,13.50
2022-12-08T02:07:12.244Z,12.00
2022-12-08T02:09:41.102Z,11.00
2022-12-08T02:12:09.897Z,12.00
2022-12-08T02:14:40.540Z,11.75
2022-12-08T02:17:16.453Z,7.50
2022-12-08T02:20:37.328Z,6.00
2022-12-08T02:23:42.287Z,10.00
2022-12-08T02:26:47.273Z,10.00
2022-12-08T02:29:23.378Z,13.67
2022-12-08T02:32:02.548Z,11.50
2022-12-08T02:34:42.901Z,9.50
2022-12-08T02:37:17.700Z,11.00
2022-12-08T02:40:00.126Z,11.75
2022-12-08T02:42:46.464Z,16.25
2022-12-08T02:45:21.925Z,15.00
2022-12-08T02:47:50.264Z,10.75
2022-12-08T02:50:17.332Z,13.50
2022-12-08T02:52:48.821Z,13.25
2022-12-08T02:55:21.462Z,11.75
2022-12-08T02:58:04.206Z,13.50
2022-12-08T03:00:49.435Z,12.50
2022-12-08T03:03:33.100Z,13.00
2022-12-08T03:06:00.043Z,11.25
2022-12-08T03:08:33.172Z,10.50
2022-12-08T03:11:06.489Z,8.25
2022-12-08T03:13:46.777Z,10.00
2022-12-08T03:16:18.805Z,10.25
2022-12-08T03:18:52.964Z,12.75
2022-12-08T03:21:22.384Z,10.50
2022-12-08T03:23:55.565Z,7.00
2022-12-08T03:26:32.888Z,12.00
2022-12-08T03:29:00.926Z,11.50
2022-12-08T03:31:33.655Z,8.25
2022-12-08T03:34:05.012Z,12.00
2022-12-08T03:36:32.421Z,15.75
2022-12-08T03:39:00.267Z,10.00
2022-12-08T03:41:27.481Z,11.00
2022-12-08T03:43:59.607Z,10.25
2022-12-08T03:48:56.298Z,8.50
2022-12-08T03:51:23.709Z,10.00
2022-12-08T03:53:51.326Z,12.75
2022-12-08T03:56:33.685Z,14.00
2022-12-08T03:59:02.112Z,16.00
2022-12-08T04:01:29.275Z,20.00
2022-12-08T04:03:56.979Z,24.00
2022-12-08T04:06:24.643Z,24.25
2022-12-08T04:08:52.616Z,24.75
2022-12-08T04:11:20.534Z,19.50
2022-12-08T04:13:48.133Z,14.50
2022-12-08T04:16:22.100Z,32.75
2022-12-08T04:18:50.167Z,36.75
2022-12-08T04:21:17.671Z,35.50
2022-12-08T04:23:45.341Z,28.75
2022-12-08T04:26:13.406Z,27.25
2022-12-08T04:28:40.889Z,26.00
2022-12-08T04:31:08.410Z,12.75
2022-12-08T04:33:35.839Z,20.25
2022-12-08T04:36:05.219Z,16.25
2022-12-08T04:38:33.505Z,19.50
2022-12-08T04:41:01.081Z,22.00
2022-12-08T04:43:29.040Z,19.00
2022-12-08T04:45:56.382Z,19.25
2022-12-08T04:48:24.317Z,23.50
2022-12-08T04:50:51.845Z,31.50
2022-12-08T04:53:20.451Z,28.25
2022-12-08T04:55:48.939Z,28.25
2022-12-08T04:58:19.284Z,28.25
2022-12-08T05:00:47.673Z,28.75
2022-12-08T05:03:16.081Z,30.25
2022-12-08T05:05:43.833Z,27.00
2022-12-08T05:08:11.903Z,24.25
2022-12-08T05:10:39.119Z,22.75
2022-12-08T05:13:07.247Z,25.00
2022-12-08T05:15:37.117Z,15.25
2022-12-08T05:18:07.673Z,23.50
2022-12-08T05:20:36.109Z,25.75
2022-12-08T05:23:03.833Z,35.50
2022-12-08T05:25:30.892Z,26.50
2022-12-08T05:28:32.337Z,37.25
2022-12-08T05:30:45.394Z,31.00
2022-12-08T05:33:12.911Z,23.00
2022-12-08T05:35:40.220Z,27.50
2022-12-08T05:38:07.946Z,28.00
2022-12-08T05:40:35.118Z,24.75
2022-12-08T05:43:02.603Z,27.00
2022-12-08T05:45:29.736Z,25.00
2022-12-08T05:47:57.267Z,24.25
2022-12-08T05:50:24.725Z,25.50
2022-12-08T05:52:52.213Z,21.00
2022-12-08T05:55:22.576Z,21.00
2022-12-08T05:57:50.372Z,24.50
2022-12-08T06:00:18.370Z,21.25
2022-12-08T06:02:46.074Z,19.25
2022-12-08T06:05:13.398Z,25.00
2022-12-08T06:07:43.998Z,36.00
2022-12-08T06:10:12.863Z,34.00
2022-12-08T06:12:40.881Z,31.25
2022-12-08T06:15:08.344Z,20.75
2022-12-08T06:17:35.959Z,11.75
2022-12-08T06:20:06.214Z,19.50
2022-12-08T06:22:34.209Z,18.50
2022-12-08T06:25:03.233Z,18.00
2022-12-08T06:27:34.505Z,15.50
2022-12-08T06:30:01.795Z,17.25
2022-12-08T06:32:29.679Z,21.75
2022-12-08T06:34:56.749Z,17.25
2022-12-08T06:37:24.416Z,18.00
2022-12-08T06:39:52.127Z,18.75
2022-12-08T06:42:48.764Z,18.50
2022-12-08T06:45:17.896Z,16.25
2022-12-08T06:47:48.300Z,25.50
2022-12-08T06:50:15.764Z,26.50
2022-12-08T06:52:54.344Z,23.50
2022-12-08T06:55:57.450Z,25.50
2022-12-08T06:58:15.510Z,24.00
2022-12-08T07:00:42.593Z,25.75
2022-12-08T07:03:11.863Z,31.50
2022-12-08T07:05:39.745Z,32.00
2022-12-08T07:08:09.170Z,31.00
2022-12-08T07:10:36.346Z,28.50
2022-12-08T07:13:04.147Z,26.75
2022-12-08T07:15:31.452Z,23.75
2022-12-08T07:18:00.395Z,29.75
2022-12-08T07:20:28.394Z,31.50
2022-12-08T07:22:56.352Z,26.25
2022-12-08T07:25:23.932Z,27.00
2022-12-08T07:27:52.896Z,24.00
2022-12-08T07:30:20.279Z,25.75
2022-12-08T07:32:47.818Z,26.50
2022-12-08T07:35:17.205Z,24.00
2022-12-08T07:37:44.752Z,25.75
2022-12-08T07:40:12.775Z,22.75
2022-12-08T07:42:40.616Z,27.50
2022-12-08T07:45:08.296Z,27.50
2022-12-08T07:47:35.789Z,22.75
2022-12-08T07:50:03.247Z,27.00
2022-12-08T07:52:30.961Z,26.50
2022-12-08T07:54:58.128Z,28.75
2022-12-08T07:57:25.718Z,24.25
2022-12-08T07:59:56.372Z,26.00
2022-12-08T08:02:25.712Z,25.25
2022-12-08T08:04:54.057Z,18.75
2022-12-08T08:07:21.633Z,30.00
2022-12-08T08:09:48.693Z,31.00
2022-12-08T08:12:34.689Z,30.25
2022-12-08T08:15:07.724Z,24.75
2022-12-08T08:17:39.414Z,22.00
2022-12-08T08:20:08.222Z,29.75
2022-12-08T08:22:37.229Z,21.50
2022-12-08T08:25:04.874Z,22.50
2022-12-08T08:27:33.556Z,14.75
2022-12-08T08:30:01.031Z,14.50
2022-12-08T08:32:28.511Z,18.75
2022-12-08T08:34:55.566Z,15.75
2022-12-08T08:37:23.635Z,15.25
2022-12-08T08:39:50.820Z,15.00
2022-12-08T08:42:18.259Z,10.50
2022-12-08T08:44:45.521Z,19.50
2022-12-08T08:47:15.775Z,25.50
2022-12-08T08:49:46.658Z,27.75
2022-12-08T08:52:14.252Z,29.50
2022-12-08T08:54:41.260Z,30.75
2022-12-08T08:57:09.681Z,33.50
2022-12-08T08:59:39.276Z,17.25
2022-12-08T09:02:07.249Z,34.75
2022-12-08T09:04:34.400Z,27.00
2022-12-08T09:07:02.376Z,25.75
2022-12-08T09:09:29.653Z,20.00
2022-12-08T09:11:58.086Z,16.25
2022-12-08T09:14:25.639Z,14.25
2022-12-08T09:16:53.099Z,14.25
2022-12-08T09:19:20.197Z,16.50
2022-12-08T09:21:47.912Z,15.50
2022-12-08T09:24:18.179Z,19.75
2022-12-08T09:26:45.959Z,16.50
2022-12-08T09:29:14.992Z,12.00
2022-12-08T09:31:42.632Z,21.50
2022-12-08T09:34:13.040Z,27.00
2022-12-08T09:36:40.887Z,28.50
2022-12-08T09:39:08.200Z,23.25
2022-12-08T09:41:44.846Z,27.00
2022-12-08T09:44:53.086Z,10.75
2022-12-08T09:47:39.281Z,16.75
2022-12-08T09:50:22.826Z,12.25
2022-12-08T09:52:56.926Z,10.50
2022-12-08T09:55:39.280Z,20.33
2022-12-08T09:58:17.852Z,18.25
2022-12-08T10:00:45.712Z,31.75
2022-12-08T10:03:16.849Z,21.25
2022-12-08T10:05:52.288Z,28.25
2022-12-08T10:08:26.288Z,16.00
2022-12-08T10:11:04.950Z,13.75
2022-12-08T10:14:15.926Z,13.00
2022-12-08T10:16:49.402Z,24.25
2022-12-08T10:19:25.472Z,13.00
2022-12-08T10:21:54.013Z,13.75
2022-12-08T19:50:29.043Z,68.75
2022-12-08T19:52:57.358Z,61.25
2022-12-08T19:55:25.828Z,64.50
2022-12-08T19:57:53.994Z,56.75
2022-12-08T20:00:21.870Z,65.75
2022-12-08T20:02:50.320Z,67.25
2022-12-08T20:05:17.911Z,59.00
2022-12-08T20:07:45.640Z,60.25
2022-12-08T20:10:21.508Z,66.50
2022-12-08T20:12:50.868Z,62.75
2022-12-08T20:15:20.518Z,71.50
2022-12-08T20:17:47.995Z,70.25
2022-12-08T20:20:15.721Z,46.00
2022-12-08T20:22:45.434Z,51.00
2022-12-08T20:25:13.532Z,70.25
2022-12-08T20:27:41.699Z,60.00
2022-12-08T20:30:15.044Z,64.50
2022-12-08T20:32:45.827Z,70.50
2022-12-08T20:35:13.433Z,57.25
2022-12-08T20:37:41.262Z,66.75
2022-12-08T20:40:09.571Z,66.50
2022-12-08T20:42:37.375Z,64.75
2022-12-08T20:45:10.031Z,59.00
2022-12-08T20:47:37.947Z,50.25
2022-12-08T20:50:06.994Z,63.50
2022-12-08T20:52:34.808Z,55.75
2022-12-08T20:55:02.339Z,57.00
2022-12-08T20:57:30.066Z,58.33
2022-12-08T20:59:57.568Z,53.25
2022-12-08T21:02:25.274Z,51.75
2022-12-08T21:04:52.828Z,52.75
2022-12-08T21:07:20.493Z,41.50
2022-12-08T21:09:53.918Z,49.75
2022-12-08T21:12:21.952Z,55.75
2022-12-08T21:14:53.104Z,47.25
2022-12-08T21:25:08.005Z,48.50
2022-12-08T21:25:42.993Z,51.00
2022-12-08T21:27:42.336Z,48.75
2022-12-08T21:30:13.584Z,42.25
2022-12-08T21:32:41.177Z,36.75
2022-12-08T21:35:09.613Z,41.75
2022-12-08T21:37:38.061Z,39.00
2022-12-08T21:40:07.125Z,41.25
2022-12-08T21:42:44.358Z,44.00
2022-12-08T21:45:17.199Z,45.00
2022-12-08T21:47:45.950Z,43.50
2022-12-08T21:50:14.808Z,53.00
2022-12-08T21:52:45.370Z,48.50
2022-12-08T21:55:14.354Z,55.25
2022-12-08T21:57:42.056Z,63.00
2022-12-08T22:00:15.362Z,73.25
2022-12-08T22:02:43.700Z,58.75
2022-12-08T22:05:11.581Z,69.00
2022-12-08T22:07:40.785Z,66.25
2022-12-08T22:10:13.124Z,51.75
2022-12-08T22:12:40.803Z,58.00
2022-12-08T22:15:11.459Z,65.25
2022-12-08T22:17:40.837Z,62.50
2022-12-08T22:20:12.947Z,78.75
2022-12-08T22:22:40.881Z,89.00
2022-12-08T22:25:12.407Z,67.25
2022-12-08T22:27:41.016Z,42.00
2022-12-08T22:30:10.138Z,74.75
2022-12-08T22:32:37.765Z,59.50
2022-12-08T22:35:05.777Z,55.50
2022-12-08T22:37:33.207Z,68.25
2022-12-08T22:40:00.763Z,71.00
2022-12-08T22:42:28.016Z,57.00
2022-12-08T22:44:55.466Z,38.25
2022-12-08T22:47:22.520Z,40.50
2022-12-08T22:49:50.391Z,46.00
2022-12-08T22:52:17.668Z,37.00
2022-12-08T22:54:45.125Z,57.50
2022-12-08T22:57:14.898Z,50.00
2022-12-08T22:59:42.659Z,50.50
2022-12-08T23:02:10.951Z,45.25
2022-12-08T23:04:38.900Z,43.25
2022-12-08T23:07:06.436Z,41.50
2022-12-08T23:09:34.138Z,45.75
2022-12-08T23:12:01.241Z,48.50
2022-12-08T23:14:28.685Z,46.00
2022-12-08T23:16:55.879Z,54.25
2022-12-08T23:19:26.314Z,35.75
2022-12-08T23:21:53.489Z,51.50
2022-12-08T23:24:21.654Z,54.67
2022-12-08T23:26:48.796Z,46.00
2022-12-08T23:29:16.662Z,45.25
2022-12-08T23:31:44.103Z,50.25
2022-12-08T23:34:12.122Z,47.75
2022-12-08T23:36:39.403Z,51.75
2022-12-08T23:39:07.340Z,51.50
2022-12-08T23:41:34.758Z,53.25
2022-12-08T23:44:02.466Z,54.25
2022-12-08T23:46:31.241Z,45.25
2022-12-08T23:48:59.326Z,59.50
2022-12-08T23:51:26.500Z,58.50
2022-12-08T23:53:54.046Z,48.25
2022-12-08T23:56:24.350Z,52.50
2022-12-08T23:58:54.374Z,55.00
